sensor_id;sensor_type;location;lat;lon;timestamp;P1;durP1;ratioP1;P2;durP2;ratioP2
69856;SDS011;57147;53.582;10.112;2023-03-01T00:03:15;22.30;;;11.75;;
69856;SDS011;57147;53.582;10.112;2023-03-01T00:08:16;25.80;;;14.48;;
69856;SDS011;57147;53.582;10.112;2023-03-01T00:13:19;21.90;;;13.13;;
69856;SDS011;57147;53.582;10.112;2023-03-01T00:18:20;23.05;;;13.05;;
69856;SDS011;57147;53.582;10.112;2023-03-01T00:23:21;20.60;;;12.07;;
69856;SDS011;57147;53.582;10.112;2023-03-01T00:28:25;20.17;;;11.88;;
69856;SDS011;57147;53.582;10.112;2023-03-01T00:33:26;22.65;;;12.73;;
69856;SDS011;57147;53.582;10.112;2023-03-01T00:38:26;21.95;;;13.57;;
69856;SDS011;57147;53.582;10.112;2023-03-01T00:43:29;24.67;;;15.55;;
69856;SDS011;57147;53.582;10.112;2023-03-01T00:48:30;24.35;;;13.35;;
69856;SDS011;57147;53.582;10.112;2023-03-01T00:53:31;22.33;;;11.23;;
69856;SDS011;57147;53.582;10.112;2023-03-01T00:58:34;24.20;;;12.98;;
69856;SDS011;57147;53.582;10.112;2023-03-01T01:03:35;20.35;;;11.57;;
69856;SDS011;57147;53.582;10.112;2023-03-01T01:08:36;21.85;;;11.82;;
69856;SDS011;57147;53.582;10.112;2023-03-01T01:13:39;19.35;;;13.55;;
69856;SDS011;57147;53.582;10.112;2023-03-01T01:18:40;21.00;;;12.23;;
69856;SDS011;57147;53.582;10.112;2023-03-01T01:23:41;19.70;;;12.02;;
69856;SDS011;57147;53.582;10.112;2023-03-01T01:28:46;20.83;;;12.35;;
69856;SDS011;57147;53.582;10.112;2023-03-01T01:33:48;20.65;;;11.88;;
69856;SDS011;57147;53.582;10.112;2023-03-01T01:38:49;19.38;;;12.95;;
69856;SDS011;57147;53.582;10.112;2023-03-01T01:49:26;20.75;;;13.25;;
69856;SDS011;57147;53.582;10.112;2023-03-01T01:54:35;18.98;;;11.10;;
69856;SDS011;57147;53.582;10.112;2023-03-01T01:59:44;20.48;;;14.38;;
69856;SDS011;57147;53.582;10.112;2023-03-01T02:04:49;19.98;;;11.15;;
69856;SDS011;57147;53.582;10.112;2023-03-01T02:09:54;15.95;;;9.95;;
69856;SDS011;57147;53.582;10.112;2023-03-01T02:14:57;17.20;;;9.65;;
69856;SDS011;57147;53.582;10.112;2023-03-01T02:20:02;16.58;;;10.52;;
69856;SDS011;57147;53.582;10.112;2023-03-01T02:25:23;16.52;;;10.07;;
69856;SDS011;57147;53.582;10.112;2023-03-01T02:30:29;17.35;;;10.25;;
69856;SDS011;57147;53.582;10.112;2023-03-01T02:35:31;19.40;;;10.90;;
69856;SDS011;57147;53.582;10.112;2023-03-01T02:40:35;19.10;;;10.88;;
69856;SDS011;57147;53.582;10.112;2023-03-01T02:45:42;19.02;;;11.30;;
69856;SDS011;57147;53.582;10.112;2023-03-01T02:50:52;18.65;;;10.15;;
69856;SDS011;57147;53.582;10.112;2023-03-01T02:56:03;19.58;;;13.35;;
69856;SDS011;57147;53.582;10.112;2023-03-01T03:01:07;17.35;;;9.98;;
69856;SDS011;57147;53.582;10.112;2023-03-01T03:06:08;17.45;;;10.02;;
69856;SDS011;57147;53.582;10.112;2023-03-01T03:11:09;17.65;;;9.48;;
69856;SDS011;57147;53.582;10.112;2023-03-01T03:16:12;16.80;;;9.80;;
69856;SDS011;57147;53.582;10.112;2023-03-01T03:21:13;13.90;;;8.90;;
69856;SDS011;57147;53.582;10.112;2023-03-01T03:26:14;16.40;;;9.55;;
69856;SDS011;57147;53.582;10.112;2023-03-01T03:31:17;18.25;;;8.45;;
69856;SDS011;57147;53.582;10.112;2023-03-01T03:36:18;16.98;;;9.05;;
69856;SDS011;57147;53.582;10.112;2023-03-01T03:41:20;14.07;;;9.25;;
69856;SDS011;57147;53.582;10.112;2023-03-01T03:46:24;17.85;;;12.57;;
69856;SDS011;57147;53.582;10.112;2023-03-01T03:51:25;17.27;;;11.25;;
69856;SDS011;57147;53.582;10.112;2023-03-01T03:56:26;20.25;;;9.75;;
69856;SDS011;57147;53.582;10.112;2023-03-01T04:01:29;13.23;;;8.88;;
69856;SDS011;57147;53.582;10.112;2023-03-01T04:06:32;12.63;;;8.15;;
69856;SDS011;57147;53.582;10.112;2023-03-01T04:11:32;20.80;;;9.18;;
69856;SDS011;57147;53.582;10.112;2023-03-01T04:16:36;13.52;;;9.90;;
69856;SDS011;57147;53.582;10.112;2023-03-01T04:26:41;13.35;;;8.82;;
69856;SDS011;57147;53.582;10.112;2023-03-01T04:31:44;14.15;;;8.23;;
69856;SDS011;57147;53.582;10.112;2023-03-01T04:36:45;12.82;;;7.75;;
69856;SDS011;57147;53.582;10.112;2023-03-01T04:41:45;12.55;;;7.65;;
69856;SDS011;57147;53.582;10.112;2023-03-01T04:46:50;14.35;;;8.75;;
69856;SDS011;57147;53.582;10.112;2023-03-01T04:51:51;12.63;;;7.22;;
69856;SDS011;57147;53.582;10.112;2023-03-01T04:56:52;12.82;;;8.30;;
69856;SDS011;57147;53.582;10.112;2023-03-01T05:01:55;13.75;;;9.27;;
69856;SDS011;57147;53.582;10.112;2023-03-01T05:06:56;16.35;;;12.13;;
69856;SDS011;57147;53.582;10.112;2023-03-01T05:11:58;12.40;;;8.13;;
69856;SDS011;57147;53.582;10.112;2023-03-01T05:17:01;15.65;;;9.48;;
69856;SDS011;57147;53.582;10.112;2023-03-01T05:22:02;13.35;;;9.35;;
69856;SDS011;57147;53.582;10.112;2023-03-01T05:27:03;14.27;;;9.57;;
69856;SDS011;57147;53.582;10.112;2023-03-01T05:32:06;14.60;;;9.25;;
69856;SDS011;57147;53.582;10.112;2023-03-01T05:37:07;15.50;;;11.68;;
69856;SDS011;57147;53.582;10.112;2023-03-01T05:42:09;14.20;;;9.07;;
69856;SDS011;57147;53.582;10.112;2023-03-01T05:47:13;15.70;;;9.60;;
69856;SDS011;57147;53.582;10.112;2023-03-01T05:52:14;18.23;;;8.77;;
69856;SDS011;57147;53.582;10.112;2023-03-01T05:57:14;16.98;;;8.65;;
69856;SDS011;57147;53.582;10.112;2023-03-01T06:02:17;14.27;;;8.75;;
69856;SDS011;57147;53.582;10.112;2023-03-01T06:07:18;14.95;;;8.50;;
69856;SDS011;57147;53.582;10.112;2023-03-01T06:12:19;14.88;;;9.00;;
69856;SDS011;57147;53.582;10.112;2023-03-01T06:17:22;15.18;;;9.20;;
69856;SDS011;57147;53.582;10.112;2023-03-01T06:22:23;13.98;;;8.35;;
69856;SDS011;57147;53.582;10.112;2023-03-01T06:27:24;17.10;;;8.60;;
69856;SDS011;57147;53.582;10.112;2023-03-01T06:32:27;15.88;;;11.00;;
69856;SDS011;57147;53.582;10.112;2023-03-01T06:37:28;18.52;;;8.52;;
69856;SDS011;57147;53.582;10.112;2023-03-01T06:42:29;13.50;;;8.73;;
69856;SDS011;57147;53.582;10.112;2023-03-01T06:47:32;14.02;;;7.88;;
69856;SDS011;57147;53.582;10.112;2023-03-01T06:52:33;16.48;;;8.27;;
69856;SDS011;57147;53.582;10.112;2023-03-01T06:57:34;17.63;;;7.55;;
69856;SDS011;57147;53.582;10.112;2023-03-01T07:02:37;14.13;;;9.18;;
69856;SDS011;57147;53.582;10.112;2023-03-01T07:07:37;15.07;;;8.57;;
69856;SDS011;57147;53.582;10.112;2023-03-01T07:12:38;17.77;;;9.00;;
69856;SDS011;57147;53.582;10.112;2023-03-01T07:17:41;17.65;;;9.70;;
69856;SDS011;57147;53.582;10.112;2023-03-01T07:22:42;13.60;;;8.55;;
69856;SDS011;57147;53.582;10.112;2023-03-01T07:27:42;14.77;;;8.88;;
69856;SDS011;57147;53.582;10.112;2023-03-01T07:32:46;16.27;;;11.07;;
69856;SDS011;57147;53.582;10.112;2023-03-01T07:37:47;14.40;;;7.50;;
69856;SDS011;57147;53.582;10.112;2023-03-01T07:42:47;13.23;;;7.45;;
69856;SDS011;57147;53.582;10.112;2023-03-01T07:47:51;11.93;;;6.78;;
69856;SDS011;57147;53.582;10.112;2023-03-01T07:52:52;13.63;;;7.20;;
69856;SDS011;57147;53.582;10.112;2023-03-01T07:57:53;13.30;;;9.63;;
69856;SDS011;57147;53.582;10.112;2023-03-01T08:02:56;15.27;;;8.10;;
69856;SDS011;57147;53.582;10.112;2023-03-01T08:08:00;14.50;;;8.27;;
69856;SDS011;57147;53.582;10.112;2023-03-01T08:13:00;15.50;;;10.70;;
69856;SDS011;57147;53.582;10.112;2023-03-01T08:18:03;11.38;;;7.22;;
69856;SDS011;57147;53.582;10.112;2023-03-01T08:23:04;12.07;;;7.10;;
69856;SDS011;57147;53.582;10.112;2023-03-01T08:28:07;12.90;;;10.05;;
69856;SDS011;57147;53.582;10.112;2023-03-01T08:33:10;14.75;;;8.40;;
69856;SDS011;57147;53.582;10.112;2023-03-01T08:38:11;14.30;;;8.55;;
69856;SDS011;57147;53.582;10.112;2023-03-01T08:43:11;14.02;;;8.07;;
69856;SDS011;57147;53.582;10.112;2023-03-01T08:48:14;12.23;;;7.85;;
69856;SDS011;57147;53.582;10.112;2023-03-01T08:53:15;13.93;;;7.90;;
69856;SDS011;57147;53.582;10.112;2023-03-01T08:58:16;15.68;;;9.50;;
69856;SDS011;57147;53.582;10.112;2023-03-01T09:03:19;18.30;;;9.57;;
69856;SDS011;57147;53.582;10.112;2023-03-01T09:08:19;16.85;;;9.57;;
69856;SDS011;57147;53.582;10.112;2023-03-01T09:13:20;13.25;;;8.85;;
69856;SDS011;57147;53.582;10.112;2023-03-01T09:18:24;14.80;;;10.20;;
69856;SDS011;57147;53.582;10.112;2023-03-01T09:23:24;14.57;;;9.20;;
69856;SDS011;57147;53.582;10.112;2023-03-01T09:28:25;15.48;;;9.32;;
69856;SDS011;57147;53.582;10.112;2023-03-01T09:33:29;17.08;;;9.77;;
69856;SDS011;57147;53.582;10.112;2023-03-01T09:38:30;17.40;;;10.45;;
69856;SDS011;57147;53.582;10.112;2023-03-01T09:43:34;15.60;;;11.60;;
69856;SDS011;57147;53.582;10.112;2023-03-01T09:48:48;15.50;;;9.10;;
69856;SDS011;57147;53.582;10.112;2023-03-01T09:53:52;14.55;;;10.95;;
69856;SDS011;57147;53.582;10.112;2023-03-01T09:58:53;14.27;;;8.73;;
69856;SDS011;57147;53.582;10.112;2023-03-01T10:04:09;15.75;;;9.95;;
69856;SDS011;57147;53.582;10.112;2023-03-01T10:09:23;15.00;;;10.73;;
69856;SDS011;57147;53.582;10.112;2023-03-01T10:14:27;12.40;;;8.00;;
69856;SDS011;57147;53.582;10.112;2023-03-01T10:19:37;12.38;;;7.82;;
69856;SDS011;57147;53.582;10.112;2023-03-01T10:24:39;14.40;;;7.65;;
69856;SDS011;57147;53.582;10.112;2023-03-01T10:29:43;11.40;;;7.43;;
69856;SDS011;57147;53.582;10.112;2023-03-01T10:34:51;11.05;;;7.82;;
69856;SDS011;57147;53.582;10.112;2023-03-01T10:39:58;11.73;;;7.40;;
69856;SDS011;57147;53.582;10.112;2023-03-01T10:50:29;11.63;;;7.93;;
69856;SDS011;57147;53.582;10.112;2023-03-01T10:55:31;11.00;;;7.05;;
69856;SDS011;57147;53.582;10.112;2023-03-01T11:00:45;12.60;;;8.65;;
69856;SDS011;57147;53.582;10.112;2023-03-01T11:05:59;12.73;;;7.30;;
69856;SDS011;57147;53.582;10.112;2023-03-01T11:11:06;13.95;;;10.57;;
69856;SDS011;57147;53.582;10.112;2023-03-01T11:16:23;11.10;;;7.85;;
69856;SDS011;57147;53.582;10.112;2023-03-01T11:21:28;12.10;;;6.75;;
69856;SDS011;57147;53.582;10.112;2023-03-01T11:26:33;10.15;;;6.45;;
69856;SDS011;57147;53.582;10.112;2023-03-01T11:31:39;12.05;;;7.38;;
69856;SDS011;57147;53.582;10.112;2023-03-01T11:36:44;10.55;;;6.95;;
69856;SDS011;57147;53.582;10.112;2023-03-01T11:41:50;11.27;;;6.47;;
69856;SDS011;57147;53.582;10.112;2023-03-01T11:47:08;12.27;;;7.78;;
69856;SDS011;57147;53.582;10.112;2023-03-01T11:52:24;10.38;;;6.35;;
69856;SDS011;57147;53.582;10.112;2023-03-01T11:57:40;9.88;;;7.60;;
69856;SDS011;57147;53.582;10.112;2023-03-01T12:02:59;9.90;;;6.03;;
69856;SDS011;57147;53.582;10.112;2023-03-01T12:08:23;10.25;;;5.78;;
69856;SDS011;57147;53.582;10.112;2023-03-01T12:19:18;8.70;;;5.10;;
69856;SDS011;57147;53.582;10.112;2023-03-01T12:24:36;11.95;;;6.75;;
69856;SDS011;57147;53.582;10.112;2023-03-01T12:29:49;10.48;;;5.72;;
69856;SDS011;57147;53.582;10.112;2023-03-01T12:35:06;10.80;;;6.15;;
69856;SDS011;57147;53.582;10.112;2023-03-01T12:40:35;7.80;;;4.63;;
69856;SDS011;57147;53.582;10.112;2023-03-01T12:45:48;7.35;;;5.50;;
69856;SDS011;57147;53.582;10.112;2023-03-01T12:50:59;8.18;;;4.97;;
69856;SDS011;57147;53.582;10.112;2023-03-01T12:56:08;8.73;;;4.95;;
69856;SDS011;57147;53.582;10.112;2023-03-01T13:01:15;9.38;;;5.50;;
69856;SDS011;57147;53.582;10.112;2023-03-01T13:06:21;8.57;;;5.68;;
69856;SDS011;57147;53.582;10.112;2023-03-01T13:11:31;8.10;;;4.88;;
69856;SDS011;57147;53.582;10.112;2023-03-01T13:16:41;9.35;;;6.18;;
69856;SDS011;57147;53.582;10.112;2023-03-01T13:21:42;9.23;;;4.93;;
69856;SDS011;57147;53.582;10.112;2023-03-01T13:32:22;5.80;;;3.75;;
69856;SDS011;57147;53.582;10.112;2023-03-01T13:37:27;4.22;;;2.60;;
69856;SDS011;57147;53.582;10.112;2023-03-01T13:42:43;6.35;;;2.38;;
69856;SDS011;57147;53.582;10.112;2023-03-01T13:47:45;3.50;;;2.72;;
69856;SDS011;57147;53.582;10.112;2023-03-01T13:52:48;5.63;;;2.70;;
69856;SDS011;57147;53.582;10.112;2023-03-01T13:57:54;5.47;;;2.97;;
69856;SDS011;57147;53.582;10.112;2023-03-01T14:03:00;4.82;;;4.22;;
69856;SDS011;57147;53.582;10.112;2023-03-01T14:08:02;6.75;;;4.75;;
69856;SDS011;57147;53.582;10.112;2023-03-01T14:13:08;4.53;;;2.95;;
69856;SDS011;57147;53.582;10.112;2023-03-01T14:18:20;4.32;;;3.00;;
69856;SDS011;57147;53.582;10.112;2023-03-01T14:23:29;5.15;;;3.40;;
69856;SDS011;57147;53.582;10.112;2023-03-01T14:28:32;5.25;;;2.83;;
69856;SDS011;57147;53.582;10.112;2023-03-01T14:33:34;5.63;;;3.67;;
69856;SDS011;57147;53.582;10.112;2023-03-01T14:38:37;6.03;;;4.15;;
69856;SDS011;57147;53.582;10.112;2023-03-01T14:43:43;7.55;;;4.25;;
69856;SDS011;57147;53.582;10.112;2023-03-01T14:48:45;5.88;;;4.28;;
69856;SDS011;57147;53.582;10.112;2023-03-01T14:53:48;5.32;;;4.03;;
69856;SDS011;57147;53.582;10.112;2023-03-01T14:58:57;6.15;;;5.43;;
69856;SDS011;57147;53.582;10.112;2023-03-01T15:04:01;6.80;;;4.05;;
69856;SDS011;57147;53.582;10.112;2023-03-01T15:09:02;4.97;;;3.13;;
69856;SDS011;57147;53.582;10.112;2023-03-01T15:14:08;3.80;;;2.35;;
69856;SDS011;57147;53.582;10.112;2023-03-01T15:19:26;3.13;;;2.05;;
69856;SDS011;57147;53.582;10.112;2023-03-01T15:24:28;3.88;;;3.15;;
69856;SDS011;57147;53.582;10.112;2023-03-01T15:29:32;3.95;;;3.10;;
69856;SDS011;57147;53.582;10.112;2023-03-01T15:34:34;6.88;;;5.15;;
69856;SDS011;57147;53.582;10.112;2023-03-01T15:39:37;4.63;;;3.55;;
69856;SDS011;57147;53.582;10.112;2023-03-01T15:44:41;4.95;;;2.78;;
69856;SDS011;57147;53.582;10.112;2023-03-01T15:49:42;5.72;;;3.47;;
69856;SDS011;57147;53.582;10.112;2023-03-01T15:54:44;4.93;;;4.47;;
69856;SDS011;57147;53.582;10.112;2023-03-01T15:59:47;4.70;;;3.22;;
69856;SDS011;57147;53.582;10.112;2023-03-01T16:04:48;5.82;;;3.75;;
69856;SDS011;57147;53.582;10.112;2023-03-01T16:09:48;6.65;;;5.03;;
69856;SDS011;57147;53.582;10.112;2023-03-01T16:14:52;7.32;;;5.07;;
69856;SDS011;57147;53.582;10.112;2023-03-01T16:19:52;7.53;;;5.53;;
69856;SDS011;57147;53.582;10.112;2023-03-01T16:24:53;9.43;;;5.95;;
69856;SDS011;57147;53.582;10.112;2023-03-01T16:29:59;7.00;;;4.80;;
69856;SDS011;57147;53.582;10.112;2023-03-01T16:35:00;7.75;;;4.80;;
69856;SDS011;57147;53.582;10.112;2023-03-01T16:40:00;7.90;;;4.45;;
69856;SDS011;57147;53.582;10.112;2023-03-01T16:45:04;8.75;;;4.07;;
69856;SDS011;57147;53.582;10.112;2023-03-01T16:50:06;6.85;;;4.35;;
69856;SDS011;57147;53.582;10.112;2023-03-01T16:55:08;7.00;;;4.05;;
69856;SDS011;57147;53.582;10.112;2023-03-01T17:00:12;6.18;;;4.40;;
69856;SDS011;57147;53.582;10.112;2023-03-01T17:05:13;7.50;;;5.13;;
69856;SDS011;57147;53.582;10.112;2023-03-01T17:10:14;7.78;;;5.25;;
69856;SDS011;57147;53.582;10.112;2023-03-01T17:15:17;8.73;;;6.75;;
69856;SDS011;57147;53.582;10.112;2023-03-01T17:20:18;8.15;;;5.72;;
69856;SDS011;57147;53.582;10.112;2023-03-01T17:25:20;11.25;;;7.18;;
69856;SDS011;57147;53.582;10.112;2023-03-01T17:30:24;7.78;;;6.03;;
69856;SDS011;57147;53.582;10.112;2023-03-01T17:35:24;8.82;;;5.15;;
69856;SDS011;57147;53.582;10.112;2023-03-01T17:40:25;7.93;;;5.75;;
69856;SDS011;57147;53.582;10.112;2023-03-01T17:45:28;7.78;;;6.65;;
69856;SDS011;57147;53.582;10.112;2023-03-01T17:50:29;8.65;;;5.30;;
69856;SDS011;57147;53.582;10.112;2023-03-01T17:55:29;16.45;;;15.07;;
69856;SDS011;57147;53.582;10.112;2023-03-01T18:00:33;14.45;;;11.20;;
69856;SDS011;57147;53.582;10.112;2023-03-01T18:10:47;14.60;;;9.20;;
69856;SDS011;57147;53.582;10.112;2023-03-01T18:15:56;17.17;;;10.43;;
69856;SDS011;57147;53.582;10.112;2023-03-01T18:20:59;13.93;;;10.52;;
69856;SDS011;57147;53.582;10.112;2023-03-01T18:26:06;16.80;;;11.30;;
69856;SDS011;57147;53.582;10.112;2023-03-01T18:31:12;15.02;;;9.68;;
69856;SDS011;57147;53.582;10.112;2023-03-01T18:36:18;14.55;;;9.13;;
69856;SDS011;57147;53.582;10.112;2023-03-01T18:41:22;15.10;;;9.90;;
69856;SDS011;57147;53.582;10.112;2023-03-01T18:46:26;18.23;;;11.85;;
69856;SDS011;57147;53.582;10.112;2023-03-01T18:51:27;19.20;;;12.02;;
69856;SDS011;57147;53.582;10.112;2023-03-01T18:56:28;20.25;;;12.13;;
69856;SDS011;57147;53.582;10.112;2023-03-01T19:01:32;21.05;;;15.25;;
69856;SDS011;57147;53.582;10.112;2023-03-01T19:06:33;18.67;;;12.15;;
69856;SDS011;57147;53.582;10.112;2023-03-01T19:11:36;20.25;;;12.93;;
69856;SDS011;57147;53.582;10.112;2023-03-01T19:16:39;21.20;;;12.27;;
69856;SDS011;57147;53.582;10.112;2023-03-01T19:21:40;19.70;;;12.43;;
69856;SDS011;57147;53.582;10.112;2023-03-01T19:26:41;23.25;;;17.65;;
69856;SDS011;57147;53.582;10.112;2023-03-01T19:31:44;22.30;;;14.73;;
69856;SDS011;57147;53.582;10.112;2023-03-01T19:36:45;23.60;;;14.82;;
69856;SDS011;57147;53.582;10.112;2023-03-01T19:41:46;24.02;;;14.70;;
69856;SDS011;57147;53.582;10.112;2023-03-01T19:46:50;22.48;;;13.73;;
69856;SDS011;57147;53.582;10.112;2023-03-01T19:51:51;27.80;;;18.40;;
69856;SDS011;57147;53.582;10.112;2023-03-01T19:56:52;24.10;;;15.25;;
69856;SDS011;57147;53.582;10.112;2023-03-01T20:01:55;24.90;;;14.95;;
69856;SDS011;57147;53.582;10.112;2023-03-01T20:06:56;27.02;;;15.77;;
69856;SDS011;57147;53.582;10.112;2023-03-01T20:11:57;25.92;;;15.30;;
69856;SDS011;57147;53.582;10.112;2023-03-01T20:17:00;22.38;;;13.75;;
69856;SDS011;57147;53.582;10.112;2023-03-01T20:22:01;26.70;;;16.25;;
69856;SDS011;57147;53.582;10.112;2023-03-01T20:27:02;22.05;;;13.93;;
69856;SDS011;57147;53.582;10.112;2023-03-01T20:32:05;23.08;;;12.90;;
69856;SDS011;57147;53.582;10.112;2023-03-01T20:37:06;24.67;;;15.32;;
69856;SDS011;57147;53.582;10.112;2023-03-01T20:42:06;24.25;;;14.95;;
69856;SDS011;57147;53.582;10.112;2023-03-01T20:47:10;22.75;;;13.77;;
69856;SDS011;57147;53.582;10.112;2023-03-01T20:52:11;24.02;;;13.63;;
69856;SDS011;57147;53.582;10.112;2023-03-01T20:57:15;24.60;;;13.30;;
69856;SDS011;57147;53.582;10.112;2023-03-01T21:02:21;23.20;;;14.68;;
69856;SDS011;57147;53.582;10.112;2023-03-01T21:07:22;24.02;;;15.25;;
69856;SDS011;57147;53.582;10.112;2023-03-01T21:12:23;32.22;;;18.15;;
69856;SDS011;57147;53.582;10.112;2023-03-01T21:17:26;26.33;;;14.30;;
69856;SDS011;57147;53.582;10.112;2023-03-01T21:22:26;25.02;;;14.63;;
69856;SDS011;57147;53.582;10.112;2023-03-01T21:27:27;28.77;;;17.38;;
69856;SDS011;57147;53.582;10.112;2023-03-01T21:32:30;26.02;;;15.70;;
69856;SDS011;57147;53.582;10.112;2023-03-01T21:37:31;30.90;;;14.68;;
69856;SDS011;57147;53.582;10.112;2023-03-01T21:42:32;25.88;;;13.55;;
69856;SDS011;57147;53.582;10.112;2023-03-01T21:47:35;25.15;;;14.38;;
69856;SDS011;57147;53.582;10.112;2023-03-01T21:52:36;19.20;;;10.95;;
69856;SDS011;57147;53.582;10.112;2023-03-01T21:57:36;17.80;;;10.40;;
69856;SDS011;57147;53.582;10.112;2023-03-01T22:02:39;18.70;;;12.40;;
69856;SDS011;57147;53.582;10.112;2023-03-01T22:07:40;18.85;;;11.07;;
69856;SDS011;57147;53.582;10.112;2023-03-01T22:12:41;26.70;;;12.98;;
69856;SDS011;57147;53.582;10.112;2023-03-01T22:17:44;24.05;;;12.23;;
69856;SDS011;57147;53.582;10.112;2023-03-01T22:22:44;16.05;;;9.20;;
69856;SDS011;57147;53.582;10.112;2023-03-01T22:27:45;20.52;;;11.30;;
69856;SDS011;57147;53.582;10.112;2023-03-01T22:32:48;20.40;;;12.43;;
69856;SDS011;57147;53.582;10.112;2023-03-01T22:37:49;17.88;;;10.32;;
69856;SDS011;57147;53.582;10.112;2023-03-01T22:42:49;17.20;;;9.18;;
69856;SDS011;57147;53.582;10.112;2023-03-01T22:47:52;17.77;;;9.85;;
69856;SDS011;57147;53.582;10.112;2023-03-01T22:52:53;27.23;;;10.43;;
69856;SDS011;57147;53.582;10.112;2023-03-01T22:57:54;16.83;;;9.20;;
69856;SDS011;57147;53.582;10.112;2023-03-01T23:02:57;17.23;;;8.77;;
69856;SDS011;57147;53.582;10.112;2023-03-01T23:07:58;18.48;;;9.43;;
69856;SDS011;57147;53.582;10.112;2023-03-01T23:12:58;19.58;;;10.10;;
69856;SDS011;57147;53.582;10.112;2023-03-01T23:18:01;18.73;;;9.80;;
69856;SDS011;57147;53.582;10.112;2023-03-01T23:23:02;16.73;;;9.05;;
69856;SDS011;57147;53.582;10.112;2023-03-01T23:28:03;17.77;;;9.65;;
69856;SDS011;57147;53.582;10.112;2023-03-01T23:33:06;13.45;;;7.57;;
69856;SDS011;57147;53.582;10.112;2023-03-01T23:38:07;15.07;;;7.70;;
69856;SDS011;57147;53.582;10.112;2023-03-01T23:43:07;15.98;;;7.93;;
69856;SDS011;57147;53.582;10.112;2023-03-01T23:48:13;14.07;;;7.30;;
69856;SDS011;57147;53.582;10.112;2023-03-01T23:53:15;13.85;;;7.50;;
69856;SDS011;57147;53.582;10.112;2023-03-01T23:58:17;12.68;;;7.72;;
